Time,TemperatureF,DewpointF,PressureIn,WindDirection,WindDirectionDegrees,WindSpeedMPH,WindSpeedGustMPH,Humidity,HourlyPrecipIn,Conditions,Clouds,dailyrainin,SoftwareType,DateUTC
2013-02-16 00:00:00,6.3,0.6,30.19,WNW,286,0.0,0.0,77,0.00,,SKC,0.00,VWS V14.01,2013-02-16 06:00:00,
2013-02-16 00:03:00,6.3,0.9,30.20,WNW,286,0.0,0.0,78,0.00,,SKC,0.00,VWS V14.01,2013-02-16 06:03:00,
2013-02-16 00:08:00,6.3,0.6,30.19,WNW,286,0.0,0.0,77,0.00,,SKC,0.00,VWS V14.01,2013-02-16 06:08:00,
2013-02-16 00:13:00,6.4,0.5,30.19,WNW,286,0.0,1.0,76,0.00,,SKC,0.00,VWS V14.01,2013-02-16 06:13:00,
2013-02-16 00:18:00,6.5,0.6,30.19,WNW,286,0.0,1.0,76,0.00,,SKC,0.00,VWS V14.01,2013-02-16 06:18:00,
2013-02-16 00:23:00,6.6,0.7,30.19,WNW,286,0.0,1.0,76,0.00,,SKC,0.00,VWS V14.01,2013-02-16 06:23:00,
2013-02-16 00:28:00,6.7,1.0,30.18,WNW,286,0.0,1.0,77,0.00,,SKC,0.00,VWS V14.01,2013-02-16 06:28:00,
2013-02-16 00:30:00,6.7,0.8,30.18,WNW,286,0.0,1.0,76,0.00,,SKC,0.00,VWS V14.01,2013-02-16 06:30:00,
2013-02-16 00:33:00,6.7,0.8,30.18,WNW,286,0.0,1.0,76,0.00,,SKC,0.00,VWS V14.01,2013-02-16 06:33:00,
2013-02-16 00:38:00,6.6,0.7,30.18,WNW,286,0.0,0.0,76,0.00,,SKC,0.00,VWS V14.01,2013-02-16 06:38:00,
2013-02-16 00:43:00,6.4,0.2,30.18,WNW,286,0.0,0.0,75,0.00,,SKC,0.00,VWS V14.01,2013-02-16 06:43:00,
2013-02-16 00:48:00,6.2,0.0,30.18,WNW,286,0.0,0.0,75,0.00,,SKC,0.00,VWS V14.01,2013-02-16 06:48:00,
2013-02-16 00:53:00,6.1,-0.1,30.18,WNW,286,0.0,1.0,75,0.00,,SKC,0.00,VWS V14.01,2013-02-16 06:53:00,
2013-02-16 00:58:00,6.0,-0.2,30.18,WNW,286,0.0,1.0,75,0.00,,SKC,0.00,VWS V14.01,2013-02-16 06:58:00,
2013-02-16 01:00:00,6.0,-0.2,30.18,WNW,286,0.0,2.0,75,0.00,,SKC,0.00,VWS V14.01,2013-02-16 07:00:00,
2013-02-16 01:04:00,6.0,-0.2,30.18,WNW,286,2.0,2.0,75,0.00,,SKC,0.00,VWS V14.01,2013-02-16 07:04:00,
2013-02-16 01:09:00,6.0,0.1,30.18,WNW,286,0.0,4.0,76,0.00,,SKC,0.00,VWS V14.01,2013-02-16 07:09:00,
2013-02-16 01:14:00,6.1,0.2,30.18,WNW,286,0.0,4.0,76,0.00,,SKC,0.00,VWS V14.01,2013-02-16 07:14:00,
2013-02-16 01:19:00,6.0,0.1,30.18,WNW,286,0.0,4.0,76,0.00,,SKC,0.00,VWS V14.01,2013-02-16 07:19:00,
2013-02-16 01:24:00,5.9,0.0,30.18,WNW,286,0.0,4.0,76,0.00,,SKC,0.00,VWS V14.01,2013-02-16 07:24:00,
2013-02-16 01:29:00,5.9,0.0,30.18,WNW,286,0.0,4.0,76,0.00,,SKC,0.00,VWS V14.01,2013-02-16 07:29:00,
2013-02-16 01:30:00,5.9,0.0,30.18,WNW,286,0.0,4.0,76,0.00,,SKC,0.00,VWS V14.01,2013-02-16 07:30:00,
2013-02-16 01:34:00,5.9,0.0,30.18,WNW,286,4.0,4.0,76,0.00,,SKC,0.00,VWS V14.01,2013-02-16 07:34:00,
2013-02-16 01:39:00,6.0,0.1,30.18,WNW,286,0.0,0.0,76,0.00,,SKC,0.00,VWS V14.01,2013-02-16 07:39:00,
2013-02-16 01:44:00,5.9,0.0,30.18,WNW,286,0.0,1.0,76,0.00,,SKC,0.00,VWS V14.01,2013-02-16 07:44:00,
2013-02-16 01:49:00,6.0,0.3,30.18,WNW,286,0.0,1.0,77,0.00,,SKC,0.00,VWS V14.01,2013-02-16 07:49:00,
2013-02-16 01:54:00,6.0,0.3,30.18,WNW,286,0.0,1.0,77,0.00,,SKC,0.00,VWS V14.01,2013-02-16 07:54:00,
2013-02-16 01:59:00,6.1,0.4,30.18,WNW,286,0.0,4.0,77,0.00,,SKC,0.00,VWS V14.01,2013-02-16 07:59:00,
2013-02-16 02:00:00,6.1,0.4,30.18,WNW,286,0.0,4.0,77,0.00,,SKC,0.00,VWS V14.01,2013-02-16 08:00:00,
2013-02-16 02:04:00,6.1,0.4,30.18,WNW,286,0.0,4.0,77,0.00,,SKC,0.00,VWS V14.01,2013-02-16 08:04:00,
2013-02-16 02:09:00,6.1,0.4,30.17,WNW,286,0.0,4.0,77,0.00,,SKC,0.00,VWS V14.01,2013-02-16 08:09:00,
2013-02-16 02:14:00,6.1,0.4,30.17,WNW,286,0.0,4.0,77,0.00,,SKC,0.00,VWS V14.01,2013-02-16 08:14:00,
2013-02-16 02:19:00,6.0,0.3,30.17,WNW,286,0.0,4.0,77,0.00,,SKC,0.00,VWS V14.01,2013-02-16 08:19:00,
2013-02-16 02:24:00,6.0,0.3,30.17,WNW,286,0.0,4.0,77,0.00,,SKC,0.00,VWS V14.01,2013-02-16 08:24:00,
2013-02-16 02:29:00,6.0,0.3,30.17,WNW,286,0.0,4.0,77,0.00,,SKC,0.00,VWS V14.01,2013-02-16 08:29:00,
2013-02-16 02:30:00,6.0,0.3,30.17,WNW,286,1.0,4.0,77,0.00,,SKC,0.00,VWS V14.01,2013-02-16 08:30:00,
2013-02-16 02:34:00,6.0,0.3,30.17,WNW,286,2.0,4.0,77,0.00,,SKC,0.00,VWS V14.01,2013-02-16 08:34:00,
2013-02-16 02:39:00,6.0,0.3,30.17,WNW,286,0.0,1.0,77,0.00,,SKC,0.00,VWS V14.01,2013-02-16 08:39:00,
2013-02-16 02:44:00,6.1,0.7,30.17,WNW,286,0.0,1.0,78,0.00,,SKC,0.00,VWS V14.01,2013-02-16 08:44:00,
2013-02-16 02:49:00,6.0,0.6,30.17,WNW,286,0.0,1.0,78,0.00,,SKC,0.00,VWS V14.01,2013-02-16 08:49:00,
2013-02-16 02:54:00,6.0,0.6,30.17,WNW,286,0.0,1.0,78,0.00,,SKC,0.00,VWS V14.01,2013-02-16 08:54:00,
2013-02-16 02:59:00,6.0,0.6,30.17,WNW,286,0.0,2.0,78,0.00,,SKC,0.00,VWS V14.01,2013-02-16 08:59:00,
2013-02-16 03:00:00,6.1,0.7,30.17,WNW,286,0.0,2.0,78,0.00,,SKC,0.00,VWS V14.01,2013-02-16 09:00:00,
2013-02-16 03:04:00,6.0,0.6,30.17,WNW,286,0.0,2.0,78,0.00,,SKC,0.00,VWS V14.01,2013-02-16 09:04:00,
2013-02-16 03:09:00,6.1,0.7,30.17,WNW,286,2.0,2.0,78,0.00,,SKC,0.00,VWS V14.01,2013-02-16 09:09:00,
2013-02-16 03:14:00,6.1,0.7,30.16,WNW,286,0.0,2.0,78,0.00,,SKC,0.00,VWS V14.01,2013-02-16 09:14:00,
2013-02-16 03:19:00,6.1,0.7,30.16,WNW,286,0.0,2.0,78,0.00,,SKC,0.00,VWS V14.01,2013-02-16 09:19:00,
2013-02-16 03:25:00,6.0,0.6,30.16,WNW,286,0.0,2.0,78,0.00,,SKC,0.00,VWS V14.01,2013-02-16 09:25:00,
2013-02-16 03:30:00,6.0,0.6,30.16,WNW,286,0.0,2.0,78,0.00,,SKC,0.00,VWS V14.01,2013-02-16 09:30:00,
2013-02-16 03:35:00,6.0,0.9,30.16,WNW,286,0.0,3.0,79,0.00,,SKC,0.00,VWS V14.01,2013-02-16 09:35:00,
2013-02-16 03:40:00,5.8,0.4,30.16,WNW,286,0.0,2.0,78,0.00,,SKC,0.00,VWS V14.01,2013-02-16 09:40:00,
2013-02-16 03:45:00,5.6,0.2,30.15,WNW,286,0.0,2.0,78,0.00,,SKC,0.00,VWS V14.01,2013-02-16 09:45:00,
2013-02-16 03:50:00,5.3,-0.1,30.16,WNW,286,0.0,3.0,78,0.00,,SKC,0.00,VWS V14.01,2013-02-16 09:50:00,
2013-02-16 03:55:00,5.1,-0.2,30.16,WNW,286,0.0,3.0,78,0.00,,SKC,0.00,VWS V14.01,2013-02-16 09:55:00,
2013-02-16 04:00:00,5.2,0.1,30.15,WNW,286,1.0,3.0,79,0.00,,SKC,0.00,VWS V14.01,2013-02-16 10:00:00,
2013-02-16 04:05:00,5.3,0.2,30.15,WNW,286,0.0,3.0,79,0.00,,SKC,0.00,VWS V14.01,2013-02-16 10:05:00,
2013-02-16 04:10:00,5.1,0.0,30.16,WNW,286,0.0,1.0,79,0.00,,SKC,0.00,VWS V14.01,2013-02-16 10:10:00,
2013-02-16 04:15:00,5.1,0.0,30.15,WNW,286,0.0,2.0,79,0.00,,SKC,0.00,VWS V14.01,2013-02-16 10:15:00,
2013-02-16 04:20:00,5.1,0.0,30.15,WNW,286,0.0,4.0,79,0.00,,SKC,0.00,VWS V14.01,2013-02-16 10:20:00,
2013-02-16 04:25:00,5.1,0.0,30.15,WNW,286,0.0,4.0,79,0.00,,SKC,0.00,VWS V14.01,2013-02-16 10:25:00,
2013-02-16 04:30:00,5.1,0.0,30.15,WNW,286,0.0,4.0,79,0.00,,SKC,0.00,VWS V14.01,2013-02-16 10:30:00,
2013-02-16 04:35:00,5.0,-0.1,30.15,WNW,286,0.0,4.0,79,0.00,,SKC,0.00,VWS V14.01,2013-02-16 10:35:00,
2013-02-16 04:40:00,5.0,-0.1,30.15,WNW,286,0.0,0.0,79,0.00,,SKC,0.00,VWS V14.01,2013-02-16 10:40:00,
2013-02-16 04:45:00,4.8,-0.3,30.15,WNW,286,0.0,0.0,79,0.00,,SKC,0.00,VWS V14.01,2013-02-16 10:45:00,
2013-02-16 04:50:00,4.7,-0.4,30.15,WNW,286,0.0,2.0,79,0.00,,SKC,0.00,VWS V14.01,2013-02-16 10:50:00,
2013-02-16 04:55:00,4.6,-0.2,30.15,WNW,286,0.0,3.0,80,0.00,,SKC,0.00,VWS V14.01,2013-02-16 10:55:00,
2013-02-16 05:00:00,4.4,-0.4,30.15,WNW,286,0.0,3.0,80,0.00,,SKC,0.00,VWS V14.01,2013-02-16 11:00:00,
2013-02-16 05:05:00,4.2,-0.9,30.15,WNW,286,0.0,3.0,79,0.00,,SKC,0.00,VWS V14.01,2013-02-16 11:05:00,
2013-02-16 05:10:00,4.1,-0.7,30.16,WNW,286,2.0,2.0,80,0.00,,SKC,0.00,VWS V14.01,2013-02-16 11:10:00,
2013-02-16 05:15:00,4.0,-0.8,30.16,WNW,286,0.0,2.0,80,0.00,,SKC,0.00,VWS V14.01,2013-02-16 11:15:00,
2013-02-16 05:20:00,4.2,-0.3,30.16,WNW,286,0.0,2.0,81,0.00,,SKC,0.00,VWS V14.01,2013-02-16 11:20:00,
2013-02-16 05:25:00,4.3,0.0,30.15,WNW,286,0.0,2.0,82,0.00,,SKC,0.00,VWS V14.01,2013-02-16 11:25:00,
2013-02-16 05:30:00,4.0,-0.5,30.16,WNW,286,0.0,2.0,81,0.00,,SKC,0.00,VWS V14.01,2013-02-16 11:30:00,
2013-02-16 05:35:00,3.5,-1.3,30.16,WNW,286,0.0,0.0,80,0.00,,SKC,0.00,VWS V14.01,2013-02-16 11:35:00,
2013-02-16 05:40:00,3.3,-1.5,30.16,WNW,286,0.0,4.0,80,0.00,,SKC,0.00,VWS V14.01,2013-02-16 11:40:00,
2013-02-16 05:45:00,3.1,-1.7,30.16,WNW,286,0.0,4.0,80,0.00,,SKC,0.00,VWS V14.01,2013-02-16 11:45:00,
2013-02-16 05:50:00,2.8,-1.7,30.16,WNW,286,0.0,4.0,81,0.00,,SKC,0.00,VWS V14.01,2013-02-16 11:50:00,
2013-02-16 05:55:00,2.5,-2.0,30.16,WNW,286,0.0,4.0,81,0.00,,SKC,0.00,VWS V14.01,2013-02-16 11:55:00,
2013-02-16 06:00:00,2.3,-2.2,30.16,WNW,286,0.0,4.0,81,0.00,,SKC,0.00,VWS V14.01,2013-02-16 12:00:00,
2013-02-16 06:06:00,2.2,-2.3,30.16,WNW,286,0.0,0.0,81,0.00,,SKC,0.00,VWS V14.01,2013-02-16 12:06:00,
2013-02-16 06:11:00,2.1,-2.1,30.16,WNW,286,0.0,0.0,82,0.00,,SKC,0.00,VWS V14.01,2013-02-16 12:11:00,
2013-02-16 06:16:00,2.2,-1.8,30.16,WNW,286,0.0,0.0,83,0.00,,SKC,0.00,VWS V14.01,2013-02-16 12:16:00,
2013-02-16 06:21:00,1.9,-2.3,30.16,WNW,286,0.0,0.0,82,0.00,,SKC,0.00,VWS V14.01,2013-02-16 12:21:00,
2013-02-16 06:26:00,1.7,-2.5,30.16,WNW,286,0.0,0.0,82,0.00,,SKC,0.00,VWS V14.01,2013-02-16 12:26:00,
2013-02-16 06:30:00,1.6,-2.4,30.16,WNW,286,0.0,0.0,83,0.00,,SKC,0.00,VWS V14.01,2013-02-16 12:30:00,
2013-02-16 06:31:00,1.5,-2.5,30.16,WNW,286,0.0,0.0,83,0.00,,SKC,0.00,VWS V14.01,2013-02-16 12:31:00,
2013-02-16 06:36:00,1.7,-2.3,30.16,WNW,286,0.0,0.0,83,0.00,,SKC,0.00,VWS V14.01,2013-02-16 12:36:00,
2013-02-16 06:41:00,1.8,-1.9,30.16,WNW,286,0.0,0.0,84,0.00,,SKC,0.00,VWS V14.01,2013-02-16 12:41:00,
2013-02-16 06:46:00,1.5,-2.2,30.16,WNW,286,0.0,0.0,84,0.00,,SKC,0.00,VWS V14.01,2013-02-16 12:46:00,
2013-02-16 06:51:00,1.1,-2.6,30.16,WNW,286,0.0,1.0,84,0.00,,SKC,0.00,VWS V14.01,2013-02-16 12:51:00,
2013-02-16 06:56:00,0.8,-2.9,30.16,WNW,286,0.0,1.0,84,0.00,,SKC,0.00,VWS V14.01,2013-02-16 12:56:00,
2013-02-16 07:00:00,1.0,-2.7,30.16,WNW,286,0.0,1.0,84,0.00,,SKC,0.00,VWS V14.01,2013-02-16 13:00:00,
2013-02-16 07:01:00,0.8,-2.9,30.16,WNW,286,0.0,1.0,84,0.00,,SKC,0.00,VWS V14.01,2013-02-16 13:01:00,
2013-02-16 07:06:00,1.0,-2.7,30.16,WNW,286,0.0,0.0,84,0.00,,SKC,0.00,VWS V14.01,2013-02-16 13:06:00,
2013-02-16 07:11:00,0.7,-2.7,30.17,WNW,286,0.0,0.0,85,0.00,,SKC,0.00,VWS V14.01,2013-02-16 13:11:00,
2013-02-16 07:16:00,0.4,-3.3,30.17,WNW,286,0.0,0.0,84,0.00,,SKC,0.00,VWS V14.01,2013-02-16 13:16:00,
2013-02-16 07:21:00,0.3,-3.4,30.17,WNW,286,0.0,0.0,84,0.00,,SKC,0.00,VWS V14.01,2013-02-16 13:21:00,
2013-02-16 07:26:00,0.4,-3.3,30.17,WNW,286,0.0,0.0,84,0.00,,SKC,0.00,VWS V14.01,2013-02-16 13:26:00,
2013-02-16 07:30:00,0.6,-2.8,30.17,WNW,286,0.0,0.0,85,0.00,,SKC,0.00,VWS V14.01,2013-02-16 13:30:00,
2013-02-16 07:31:00,0.8,-2.6,30.17,WNW,286,0.0,0.0,85,0.00,,SKC,0.00,VWS V14.01,2013-02-16 13:31:00,
2013-02-16 07:36:00,0.6,-2.8,30.17,WNW,286,0.0,0.0,85,0.00,,SKC,0.00,VWS V14.01,2013-02-16 13:36:00,
2013-02-16 07:41:00,0.5,-2.9,30.16,WNW,286,0.0,1.0,85,0.00,,SKC,0.00,VWS V14.01,2013-02-16 13:41:00,
2013-02-16 07:46:00,0.4,-3.0,30.17,WNW,286,0.0,1.0,85,0.00,,SKC,0.00,VWS V14.01,2013-02-16 13:46:00,
2013-02-16 07:52:00,0.5,-2.9,30.17,WNW,286,0.0,1.0,85,0.00,,SKC,0.00,VWS V14.01,2013-02-16 13:52:00,
2013-02-16 07:57:00,1.1,-2.1,30.17,WNW,286,0.0,1.0,86,0.00,,SKC,0.00,VWS V14.01,2013-02-16 13:57:00,
2013-02-16 08:00:00,1.1,-2.1,30.17,WNW,286,0.0,1.0,86,0.00,,SKC,0.00,VWS V14.01,2013-02-16 14:00:00,
2013-02-16 08:02:00,1.1,-2.1,30.17,WNW,286,0.0,1.0,86,0.00,,SKC,0.00,VWS V14.01,2013-02-16 14:02:00,
2013-02-16 08:07:00,1.1,-2.1,30.17,WNW,286,0.0,0.0,86,0.00,,SKC,0.00,VWS V14.01,2013-02-16 14:07:00,
2013-02-16 08:12:00,1.2,-2.0,30.17,WNW,286,0.0,2.0,86,0.00,,SKC,0.00,VWS V14.01,2013-02-16 14:12:00,
2013-02-16 08:17:00,1.4,-1.8,30.17,WNW,286,0.0,2.0,86,0.00,,SKC,0.00,VWS V14.01,2013-02-16 14:17:00,
2013-02-16 08:22:00,1.6,-1.6,30.17,WNW,286,0.0,2.0,86,0.00,,SKC,0.00,VWS V14.01,2013-02-16 14:22:00,
2013-02-16 08:27:00,1.9,-1.3,30.17,WNW,286,0.0,2.0,86,0.00,,SKC,0.00,VWS V14.01,2013-02-16 14:27:00,
2013-02-16 08:30:00,2.4,-0.8,30.17,WNW,286,0.0,2.0,86,0.00,,SKC,0.00,VWS V14.01,2013-02-16 14:30:00,
2013-02-16 08:32:00,2.3,-0.9,30.17,WNW,286,0.0,2.0,86,0.00,,SKC,0.00,VWS V14.01,2013-02-16 14:32:00,
2013-02-16 08:37:00,2.6,-0.9,30.17,WNW,286,0.0,0.0,85,0.00,,SKC,0.00,VWS V14.01,2013-02-16 14:37:00,
2013-02-16 08:42:00,2.9,-0.6,30.17,WNW,286,0.0,0.0,85,0.00,,SKC,0.00,VWS V14.01,2013-02-16 14:42:00,
2013-02-16 08:47:00,3.7,0.5,30.17,WNW,286,0.0,1.0,86,0.00,,SKC,0.00,VWS V14.01,2013-02-16 14:47:00,
2013-02-16 08:52:00,3.9,0.6,30.17,WNW,286,0.0,1.0,86,0.00,,SKC,0.00,VWS V14.01,2013-02-16 14:52:00,
2013-02-16 08:57:00,4.2,0.7,30.17,WNW,286,0.0,1.0,85,0.00,,SKC,0.00,VWS V14.01,2013-02-16 14:57:00,
2013-02-16 09:00:00,4.9,1.4,30.17,WNW,286,0.0,1.0,85,0.00,,SKC,0.00,VWS V14.01,2013-02-16 15:00:00,
2013-02-16 09:02:00,4.5,1.0,30.17,WNW,286,0.0,1.0,85,0.00,,SKC,0.00,VWS V14.01,2013-02-16 15:02:00,
2013-02-16 09:07:00,5.0,1.5,30.16,WNW,286,0.0,0.0,85,0.00,,SKC,0.00,VWS V14.01,2013-02-16 15:07:00,
2013-02-16 09:12:00,5.9,2.6,30.16,WNW,286,0.0,0.0,86,0.00,,SKC,0.00,VWS V14.01,2013-02-16 15:12:00,
2013-02-16 09:17:00,7.1,4.1,30.16,WNW,286,0.0,0.0,87,0.00,,SKC,0.00,VWS V14.01,2013-02-16 15:17:00,
2013-02-16 09:22:00,8.2,5.4,30.16,WNW,286,0.0,0.0,88,0.00,,SKC,0.00,VWS V14.01,2013-02-16 15:22:00,
2013-02-16 09:27:00,8.7,5.6,30.16,WNW,286,0.0,1.0,87,0.00,,SKC,0.00,VWS V14.01,2013-02-16 15:27:00,
2013-02-16 09:30:00,9.0,5.4,30.16,WNW,286,0.0,3.0,85,0.00,,SKC,0.00,VWS V14.01,2013-02-16 15:30:00,
2013-02-16 09:32:00,8.9,5.3,30.16,WNW,286,0.0,3.0,85,0.00,,SKC,0.00,VWS V14.01,2013-02-16 15:32:00,
2013-02-16 09:37:00,9.1,5.3,30.16,WNW,286,3.0,6.0,84,0.00,,SKC,0.00,VWS V14.01,2013-02-16 15:37:00,
2013-02-16 09:42:00,9.4,5.6,30.16,WNW,286,0.0,6.0,84,0.00,,SKC,0.00,VWS V14.01,2013-02-16 15:42:00,
2013-02-16 09:47:00,9.9,5.8,30.16,WNW,286,1.0,6.0,83,0.00,,SKC,0.00,VWS V14.01,2013-02-16 15:47:00,
2013-02-16 09:52:00,10.3,6.2,30.16,WNW,286,1.0,6.0,83,0.00,,SKC,0.00,VWS V14.01,2013-02-16 15:52:00,
2013-02-16 09:57:00,10.6,6.2,30.16,WNW,286,0.0,6.0,82,0.00,,SKC,0.00,VWS V14.01,2013-02-16 15:57:00,
2013-02-16 10:00:00,10.8,6.1,30.16,WNW,286,0.0,6.0,81,0.00,,SKC,0.00,VWS V14.01,2013-02-16 16:00:00,
2013-02-16 10:02:00,10.7,6.0,30.16,WNW,286,2.0,6.0,81,0.00,,SKC,0.00,VWS V14.01,2013-02-16 16:02:00,
2013-02-16 10:07:00,10.8,6.1,30.16,WNW,286,0.0,4.0,81,0.00,,SKC,0.00,VWS V14.01,2013-02-16 16:07:00,
2013-02-16 10:12:00,11.0,6.1,30.17,WNW,286,0.0,6.0,80,0.00,,SKC,0.00,VWS V14.01,2013-02-16 16:12:00,
2013-02-16 10:17:00,10.9,5.7,30.16,WNW,286,2.0,6.0,79,0.00,,SKC,0.00,VWS V14.01,2013-02-16 16:17:00,
2013-02-16 10:23:00,10.9,5.7,30.16,WNW,286,0.0,6.0,79,0.00,,SKC,0.00,VWS V14.01,2013-02-16 16:23:00,
2013-02-16 10:28:00,11.0,5.8,30.16,WNW,286,1.0,6.0,79,0.00,,SKC,0.00,VWS V14.01,2013-02-16 16:28:00,
2013-02-16 10:30:00,11.2,6.0,30.16,WNW,286,0.0,6.0,79,0.00,,SKC,0.00,VWS V14.01,2013-02-16 16:30:00,
2013-02-16 10:33:00,11.2,6.0,30.16,WNW,286,0.0,6.0,79,0.00,,SKC,0.00,VWS V14.01,2013-02-16 16:33:00,
2013-02-16 10:38:00,11.1,5.9,30.16,WNW,286,2.0,4.0,79,0.00,,SKC,0.00,VWS V14.01,2013-02-16 16:38:00,
2013-02-16 10:43:00,11.3,6.1,30.16,WNW,286,0.0,4.0,79,0.00,,SKC,0.00,VWS V14.01,2013-02-16 16:43:00,
2013-02-16 10:48:00,11.3,5.8,30.16,WNW,286,0.0,4.0,78,0.00,,SKC,0.00,VWS V14.01,2013-02-16 16:48:00,
2013-02-16 10:53:00,12.3,7.6,30.16,WNW,286,0.0,4.0,81,0.00,,SKC,0.00,VWS V14.01,2013-02-16 16:53:00,
2013-02-16 10:58:00,13.4,8.4,30.16,WNW,286,0.0,4.0,80,0.00,,SKC,0.00,VWS V14.01,2013-02-16 16:58:00,
2013-02-16 11:00:00,14.8,10.0,30.16,WNW,286,0.0,4.0,81,0.00,,SKC,0.00,VWS V14.01,2013-02-16 17:00:00,
2013-02-16 11:03:00,14.5,9.7,30.16,WNW,286,0.0,4.0,81,0.00,,SKC,0.00,VWS V14.01,2013-02-16 17:03:00,
2013-02-16 11:08:00,15.2,10.4,30.15,WNW,286,0.0,1.0,81,0.00,,SKC,0.00,VWS V14.01,2013-02-16 17:08:00,
2013-02-16 11:13:00,15.8,10.7,30.15,WNW,286,1.0,1.0,80,0.00,,SKC,0.00,VWS V14.01,2013-02-16 17:13:00,
2013-02-16 11:18:00,16.2,10.8,30.15,WNW,286,0.0,2.0,79,0.00,,SKC,0.00,VWS V14.01,2013-02-16 17:18:00,
2013-02-16 11:23:00,16.7,11.3,30.15,WNW,286,0.0,2.0,79,0.00,,SKC,0.00,VWS V14.01,2013-02-16 17:23:00,
2013-02-16 11:28:00,17.2,11.8,30.15,WNW,286,0.0,2.0,79,0.00,,SKC,0.00,VWS V14.01,2013-02-16 17:28:00,
2013-02-16 11:30:00,18.0,12.9,30.15,WNW,286,0.0,2.0,80,0.00,,SKC,0.00,VWS V14.01,2013-02-16 17:30:00,
2013-02-16 11:33:00,17.7,12.6,30.15,WNW,286,0.0,2.0,80,0.00,,SKC,0.00,VWS V14.01,2013-02-16 17:33:00,
2013-02-16 11:38:00,18.2,12.8,30.14,WNW,286,0.0,0.0,79,0.00,,SKC,0.00,VWS V14.01,2013-02-16 17:38:00,
2013-02-16 11:43:00,18.5,12.8,30.14,WNW,286,0.0,0.0,78,0.00,,SKC,0.00,VWS V14.01,2013-02-16 17:43:00,
2013-02-16 11:48:00,18.9,13.2,30.14,WNW,286,0.0,0.0,78,0.00,,SKC,0.00,VWS V14.01,2013-02-16 17:48:00,
2013-02-16 11:53:00,19.2,13.2,30.14,WNW,286,0.0,0.0,77,0.00,,SKC,0.00,VWS V14.01,2013-02-16 17:53:00,
2013-02-16 11:58:00,19.5,13.2,30.14,WNW,286,0.0,0.0,76,0.00,,SKC,0.00,VWS V14.01,2013-02-16 17:58:00,
2013-02-16 12:00:00,19.7,12.8,30.14,WNW,286,0.0,1.0,74,0.00,,SKC,0.00,VWS V14.01,2013-02-16 18:00:00,
2013-02-16 12:03:00,19.7,13.1,30.14,WNW,286,0.0,0.0,75,0.00,,SKC,0.00,VWS V14.01,2013-02-16 18:03:00,
2013-02-16 12:08:00,19.7,13.1,30.14,WNW,286,0.0,0.0,75,0.00,,SKC,0.00,VWS V14.01,2013-02-16 18:08:00,
2013-02-16 12:13:00,19.4,12.5,30.14,WNW,286,0.0,1.0,74,0.00,,SKC,0.00,VWS V14.01,2013-02-16 18:13:00,
2013-02-16 12:18:00,19.2,12.0,30.14,WNW,286,0.0,2.0,73,0.00,,SKC,0.00,VWS V14.01,2013-02-16 18:18:00,
2013-02-16 12:23:00,19.1,11.6,30.14,WNW,286,0.0,2.0,72,0.00,,SKC,0.00,VWS V14.01,2013-02-16 18:23:00,
2013-02-16 12:29:00,19.2,12.3,30.14,WNW,286,0.0,2.0,74,0.00,,SKC,0.00,VWS V14.01,2013-02-16 18:29:00,
2013-02-16 12:30:00,19.3,12.1,30.13,WNW,286,1.0,3.0,73,0.00,,SKC,0.00,VWS V14.01,2013-02-16 18:30:00,
2013-02-16 12:34:00,19.3,12.4,30.13,WNW,286,2.0,3.0,74,0.00,,SKC,0.00,VWS V14.01,2013-02-16 18:34:00,
2013-02-16 12:39:00,19.2,12.0,30.13,WNW,286,1.0,1.0,73,0.00,,SKC,0.00,VWS V14.01,2013-02-16 18:39:00,
2013-02-16 12:44:00,19.2,12.0,30.13,WNW,286,0.0,2.0,73,0.00,,SKC,0.00,VWS V14.01,2013-02-16 18:44:00,
2013-02-16 12:49:00,19.7,13.1,30.12,WNW,286,0.0,2.0,75,0.00,,SKC,0.00,VWS V14.01,2013-02-16 18:49:00,
2013-02-16 12:54:00,19.9,13.0,30.12,WNW,286,0.0,2.0,74,0.00,,SKC,0.00,VWS V14.01,2013-02-16 18:54:00,
2013-02-16 12:59:00,20.3,13.0,30.12,WNW,286,0.0,2.0,73,0.00,,SKC,0.00,VWS V14.01,2013-02-16 18:59:00,
2013-02-16 13:00:00,20.4,12.5,30.12,WNW,286,0.0,2.0,71,0.00,,SKC,0.00,VWS V14.01,2013-02-16 19:00:00,
2013-02-16 13:04:00,20.4,12.5,30.12,WNW,286,0.0,2.0,71,0.00,,SKC,0.00,VWS V14.01,2013-02-16 19:04:00,
2013-02-16 13:09:00,20.3,12.4,30.12,WNW,286,0.0,1.0,71,0.00,,SKC,0.00,VWS V14.01,2013-02-16 19:09:00,
2013-02-16 13:14:00,19.8,11.9,30.12,WNW,286,1.0,1.0,71,0.00,,SKC,0.00,VWS V14.01,2013-02-16 19:14:00,
2013-02-16 13:19:00,19.7,11.8,30.12,WNW,286,0.0,2.0,71,0.00,,SKC,0.00,VWS V14.01,2013-02-16 19:19:00,
2013-02-16 13:24:00,19.6,11.7,30.12,WNW,286,0.0,2.0,71,0.00,,SKC,0.00,VWS V14.01,2013-02-16 19:24:00,
2013-02-16 13:29:00,19.3,11.4,30.12,WNW,286,0.0,3.0,71,0.00,,SKC,0.00,VWS V14.01,2013-02-16 19:29:00,
2013-02-16 13:30:00,18.9,11.1,30.11,WNW,286,1.0,3.0,71,0.00,,SKC,0.00,VWS V14.01,2013-02-16 19:30:00,
2013-02-16 13:34:00,18.9,11.1,30.11,WNW,286,0.0,3.0,71,0.00,,SKC,0.00,VWS V14.01,2013-02-16 19:34:00,
2013-02-16 13:39:00,18.7,11.2,30.11,WNW,286,0.0,1.0,72,0.00,,SKC,0.00,VWS V14.01,2013-02-16 19:39:00,
2013-02-16 13:44:00,18.5,11.0,30.11,WNW,286,0.0,1.0,72,0.00,,SKC,0.00,VWS V14.01,2013-02-16 19:44:00,
2013-02-16 13:49:00,18.5,11.0,30.11,WNW,286,0.0,1.0,72,0.00,,SKC,0.00,VWS V14.01,2013-02-16 19:49:00,
2013-02-16 13:54:00,18.5,10.7,30.11,WNW,286,1.0,1.0,71,0.00,,SKC,0.00,VWS V14.01,2013-02-16 19:54:00,
2013-02-16 13:59:00,18.6,11.1,30.11,WNW,286,0.0,1.0,72,0.00,,SKC,0.00,VWS V14.01,2013-02-16 19:59:00,
2013-02-16 14:00:00,18.8,11.0,30.10,WNW,286,0.0,2.0,71,0.00,,SKC,0.00,VWS V14.01,2013-02-16 20:00:00,
2013-02-16 14:04:00,18.7,10.9,30.10,WNW,286,2.0,2.0,71,0.00,,SKC,0.00,VWS V14.01,2013-02-16 20:04:00,
2013-02-16 14:09:00,18.9,11.1,30.10,WNW,286,0.0,1.0,71,0.00,,SKC,0.00,VWS V14.01,2013-02-16 20:09:00,
2013-02-16 14:14:00,19.0,10.8,30.11,WNW,286,0.0,2.0,70,0.00,,SKC,0.00,VWS V14.01,2013-02-16 20:14:00,
2013-02-16 14:19:00,19.2,11.0,30.10,WNW,286,0.0,2.0,70,0.00,,SKC,0.00,VWS V14.01,2013-02-16 20:19:00,
2013-02-16 14:24:00,19.2,11.4,30.10,WNW,286,0.0,2.0,71,0.00,,SKC,0.00,VWS V14.01,2013-02-16 20:24:00,
2013-02-16 14:29:00,19.1,11.3,30.10,WNW,286,0.0,2.0,71,0.00,,SKC,0.00,VWS V14.01,2013-02-16 20:29:00,
2013-02-16 14:30:00,18.9,11.1,30.10,WNW,286,0.0,2.0,71,0.00,,SKC,0.00,VWS V14.01,2013-02-16 20:30:00,
2013-02-16 14:34:00,18.9,11.1,30.10,WNW,286,0.0,2.0,71,0.00,,SKC,0.00,VWS V14.01,2013-02-16 20:34:00,
2013-02-16 14:40:00,18.9,11.1,30.10,WNW,286,0.0,0.0,71,0.00,,SKC,0.00,VWS V14.01,2013-02-16 20:40:00,
2013-02-16 14:45:00,19.0,11.2,30.10,WNW,286,0.0,0.0,71,0.00,,SKC,0.00,VWS V14.01,2013-02-16 20:45:00,
2013-02-16 14:50:00,19.1,11.3,30.10,WNW,286,0.0,0.0,71,0.00,,SKC,0.00,VWS V14.01,2013-02-16 20:50:00,
2013-02-16 14:55:00,19.4,11.2,30.10,WNW,286,0.0,0.0,70,0.00,,SKC,0.00,VWS V14.01,2013-02-16 20:55:00,
2013-02-16 15:00:00,19.6,11.4,30.10,WNW,286,0.0,0.0,70,0.00,,SKC,0.00,VWS V14.01,2013-02-16 21:00:00,
2013-02-16 15:05:00,19.7,11.2,30.10,WNW,286,0.0,0.0,69,0.00,,SKC,0.00,VWS V14.01,2013-02-16 21:05:00,
2013-02-16 15:10:00,19.7,11.2,30.10,WNW,286,0.0,0.0,69,0.00,,SKC,0.00,VWS V14.01,2013-02-16 21:10:00,
2013-02-16 15:15:00,19.8,11.9,30.10,WNW,286,0.0,0.0,71,0.00,,SKC,0.00,VWS V14.01,2013-02-16 21:15:00,
2013-02-16 15:20:00,20.2,11.4,30.10,WNW,286,0.0,1.0,68,0.00,,SKC,0.00,VWS V14.01,2013-02-16 21:20:00,
2013-02-16 15:25:00,20.4,10.9,30.10,WNW,286,1.0,1.0,66,0.00,,SKC,0.00,VWS V14.01,2013-02-16 21:25:00,
2013-02-16 15:30:00,20.5,11.6,30.10,WNW,286,0.0,1.0,68,0.00,,SKC,0.00,VWS V14.01,2013-02-16 21:30:00,
2013-02-16 15:35:00,20.5,11.3,30.10,WNW,286,0.0,1.0,67,0.00,,SKC,0.00,VWS V14.01,2013-02-16 21:35:00,
2013-02-16 15:40:00,20.4,11.2,30.11,WNW,286,0.0,0.0,67,0.00,,SKC,0.00,VWS V14.01,2013-02-16 21:40:00,
2013-02-16 15:45:00,19.9,11.1,30.10,WNW,286,0.0,0.0,68,0.00,,SKC,0.00,VWS V14.01,2013-02-16 21:45:00,
2013-02-16 15:50:00,19.6,10.8,30.10,WNW,286,0.0,0.0,68,0.00,,SKC,0.00,VWS V14.01,2013-02-16 21:50:00,
2013-02-16 15:55:00,19.5,10.7,30.10,WNW,286,0.0,0.0,68,0.00,,SKC,0.00,VWS V14.01,2013-02-16 21:55:00,
2013-02-16 16:00:00,19.7,10.5,30.10,WNW,286,0.0,0.0,67,0.00,,SKC,0.00,VWS V14.01,2013-02-16 22:00:00,
2013-02-16 16:05:00,19.7,10.5,30.10,WNW,286,0.0,1.0,67,0.00,,SKC,0.00,VWS V14.01,2013-02-16 22:05:00,
2013-02-16 16:10:00,19.7,9.9,30.10,WNW,286,0.0,2.0,65,0.00,,SKC,0.00,VWS V14.01,2013-02-16 22:10:00,
2013-02-16 16:15:00,19.5,10.0,30.10,WNW,286,0.0,2.0,66,0.00,,SKC,0.00,VWS V14.01,2013-02-16 22:15:00,
2013-02-16 16:20:00,19.3,9.5,30.11,WNW,286,0.0,2.0,65,0.00,,SKC,0.00,VWS V14.01,2013-02-16 22:20:00,
2013-02-16 16:25:00,19.1,8.9,30.11,WNW,286,0.0,2.0,64,0.00,,SKC,0.00,VWS V14.01,2013-02-16 22:25:00,
2013-02-16 16:30:00,19.0,9.2,30.11,WNW,286,0.0,2.0,65,0.00,,SKC,0.00,VWS V14.01,2013-02-16 22:30:00,
2013-02-16 16:35:00,18.7,8.6,30.11,WNW,286,0.0,0.0,64,0.00,,SKC,0.00,VWS V14.01,2013-02-16 22:35:00,
2013-02-16 16:40:00,18.5,10.4,30.11,WNW,286,0.0,0.0,70,0.00,,SKC,0.00,VWS V14.01,2013-02-16 22:40:00,
2013-02-16 16:45:00,18.1,8.7,30.11,WNW,286,0.0,0.0,66,0.00,,SKC,0.00,VWS V14.01,2013-02-16 22:45:00,
2013-02-16 16:50:00,17.6,8.2,30.10,WNW,286,0.0,0.0,66,0.00,,SKC,0.00,VWS V14.01,2013-02-16 22:50:00,
2013-02-16 16:55:00,17.2,7.8,30.11,WNW,286,0.0,0.0,66,0.00,,SKC,0.00,VWS V14.01,2013-02-16 22:55:00,
2013-02-16 17:00:00,16.8,8.4,30.11,WNW,286,0.0,0.0,69,0.00,,SKC,0.00,VWS V14.01,2013-02-16 23:00:00,
2013-02-16 17:06:00,16.4,7.4,30.11,WNW,286,0.0,0.0,67,0.00,,SKC,0.00,VWS V14.01,2013-02-16 23:06:00,
2013-02-16 17:11:00,16.2,7.5,30.11,WNW,286,0.0,0.0,68,0.00,,SKC,0.00,VWS V14.01,2013-02-16 23:11:00,
2013-02-16 17:16:00,15.9,7.5,30.11,WNW,286,0.0,0.0,69,0.00,,SKC,0.00,VWS V14.01,2013-02-16 23:16:00,
2013-02-16 17:21:00,15.6,7.3,30.11,WNW,286,0.0,0.0,69,0.00,,SKC,0.00,VWS V14.01,2013-02-16 23:21:00,
2013-02-16 17:26:00,15.3,7.3,30.11,WNW,286,0.0,0.0,70,0.00,,SKC,0.00,VWS V14.01,2013-02-16 23:26:00,
2013-02-16 17:30:00,14.8,7.7,30.11,WNW,286,0.0,0.0,73,0.00,,SKC,0.00,VWS V14.01,2013-02-16 23:30:00,
2013-02-16 17:31:00,15.0,7.6,30.11,WNW,286,0.0,0.0,72,0.00,,SKC,0.00,VWS V14.01,2013-02-16 23:31:00,
2013-02-16 17:36:00,14.8,8.0,30.11,WNW,286,0.0,0.0,74,0.00,,SKC,0.00,VWS V14.01,2013-02-16 23:36:00,
2013-02-16 17:41:00,14.4,6.7,30.11,WNW,286,0.0,0.0,71,0.00,,SKC,0.00,VWS V14.01,2013-02-16 23:41:00,
2013-02-16 17:46:00,14.1,7.1,30.11,WNW,286,0.0,0.0,73,0.00,,SKC,0.00,VWS V14.01,2013-02-16 23:46:00,
2013-02-16 17:51:00,13.8,7.1,30.11,WNW,286,0.0,0.0,74,0.00,,SKC,0.00,VWS V14.01,2013-02-16 23:51:00,
2013-02-16 17:56:00,13.4,6.4,30.11,WNW,286,0.0,0.0,73,0.00,,SKC,0.00,VWS V14.01,2013-02-16 23:56:00,
2013-02-16 18:00:00,11.8,3.9,30.11,WNW,286,0.0,0.0,70,0.00,,SKC,0.00,VWS V14.01,2013-02-17 00:00:00,
2013-02-16 18:01:00,12.8,5.8,30.11,WNW,286,0.0,0.0,73,0.00,,SKC,0.00,VWS V14.01,2013-02-17 00:01:00,
2013-02-16 18:06:00,11.6,3.7,30.11,WNW,286,0.0,0.0,70,0.00,,SKC,0.00,VWS V14.01,2013-02-17 00:06:00,
2013-02-16 18:11:00,10.8,2.6,30.11,WNW,286,0.0,0.0,69,0.00,,SKC,0.00,VWS V14.01,2013-02-17 00:11:00,
2013-02-16 18:16:00,10.4,2.6,30.12,WNW,286,0.0,0.0,70,0.00,,SKC,0.00,VWS V14.01,2013-02-17 00:16:00,
2013-02-16 18:21:00,10.0,2.2,30.12,WNW,286,0.0,0.0,70,0.00,,SKC,0.00,VWS V14.01,2013-02-17 00:21:00,
2013-02-16 18:26:00,9.9,2.4,30.12,WNW,286,0.0,0.0,71,0.00,,SKC,0.00,VWS V14.01,2013-02-17 00:26:00,
2013-02-16 18:30:00,9.8,2.6,30.12,WNW,286,0.0,0.0,72,0.00,,SKC,0.00,VWS V14.01,2013-02-17 00:30:00,
2013-02-16 18:31:00,9.8,2.3,30.12,WNW,286,0.0,0.0,71,0.00,,SKC,0.00,VWS V14.01,2013-02-17 00:31:00,
2013-02-16 18:36:00,9.6,2.4,30.12,WNW,286,0.0,2.0,72,0.00,,SKC,0.00,VWS V14.01,2013-02-17 00:36:00,
2013-02-16 18:41:00,9.2,2.0,30.12,WNW,286,0.0,2.0,72,0.00,,SKC,0.00,VWS V14.01,2013-02-17 00:41:00,
2013-02-16 18:46:00,9.0,1.8,30.12,WNW,286,0.0,2.0,72,0.00,,SKC,0.00,VWS V14.01,2013-02-17 00:46:00,
2013-02-16 18:51:00,8.6,2.0,30.12,WNW,286,0.0,2.0,74,0.00,,SKC,0.00,VWS V14.01,2013-02-17 00:51:00,
2013-02-16 18:56:00,8.3,2.0,30.12,WNW,286,0.0,2.0,75,0.00,,SKC,0.00,VWS V14.01,2013-02-17 00:56:00,
2013-02-16 19:00:00,7.9,2.5,30.12,WNW,286,0.0,2.0,78,0.00,,SKC,0.00,VWS V14.01,2013-02-17 01:00:00,
2013-02-16 19:01:00,8.1,2.7,30.12,WNW,286,0.0,2.0,78,0.00,,SKC,0.00,VWS V14.01,2013-02-17 01:01:00,
2013-02-16 19:06:00,7.9,2.5,30.12,WNW,286,0.0,0.0,78,0.00,,SKC,0.00,VWS V14.01,2013-02-17 01:06:00,
2013-02-16 19:11:00,7.7,2.3,30.12,WNW,286,0.0,0.0,78,0.00,,SKC,0.00,VWS V14.01,2013-02-17 01:11:00,
2013-02-16 19:16:00,7.4,2.0,30.12,WNW,286,0.0,0.0,78,0.00,,SKC,0.00,VWS V14.01,2013-02-17 01:16:00,
2013-02-16 19:21:00,7.1,1.4,30.12,WNW,286,0.0,0.0,77,0.00,,SKC,0.00,VWS V14.01,2013-02-17 01:21:00,
2013-02-16 19:26:00,6.9,1.5,30.12,WNW,286,0.0,0.0,78,0.00,,SKC,0.00,VWS V14.01,2013-02-17 01:26:00,
2013-02-16 19:30:00,6.5,1.4,30.12,WNW,286,0.0,0.0,79,0.00,,SKC,0.00,VWS V14.01,2013-02-17 01:30:00,
2013-02-16 19:31:00,6.7,1.6,30.12,WNW,286,0.0,0.0,79,0.00,,SKC,0.00,VWS V14.01,2013-02-17 01:31:00,
2013-02-16 19:37:00,6.5,1.4,30.12,WNW,286,0.0,0.0,79,0.00,,SKC,0.00,VWS V14.01,2013-02-17 01:37:00,
2013-02-16 19:42:00,6.2,0.8,30.13,WNW,286,0.0,0.0,78,0.00,,SKC,0.00,VWS V14.01,2013-02-17 01:42:00,
2013-02-16 19:47:00,6.0,0.6,30.12,WNW,286,0.0,0.0,78,0.00,,SKC,0.00,VWS V14.01,2013-02-17 01:47:00,
2013-02-16 19:52:00,5.8,0.4,30.12,WNW,286,0.0,0.0,78,0.00,,SKC,0.00,VWS V14.01,2013-02-17 01:52:00,
2013-02-16 19:57:00,5.6,0.2,30.12,WNW,286,0.0,0.0,78,0.00,,SKC,0.00,VWS V14.01,2013-02-17 01:57:00,
2013-02-16 20:00:00,5.6,1.0,30.12,WNW,286,0.0,0.0,81,0.00,,SKC,0.00,VWS V14.01,2013-02-17 02:00:00,
2013-02-16 20:02:00,5.6,0.8,30.12,WNW,286,0.0,0.0,80,0.00,,SKC,0.00,VWS V14.01,2013-02-17 02:02:00,
2013-02-16 20:07:00,5.5,0.9,30.12,WNW,286,0.0,0.0,81,0.00,,SKC,0.00,VWS V14.01,2013-02-17 02:07:00,
2013-02-16 20:12:00,5.4,0.9,30.12,WNW,286,0.0,0.0,81,0.00,,SKC,0.00,VWS V14.01,2013-02-17 02:12:00,
2013-02-16 20:17:00,5.2,0.6,30.12,WNW,286,0.0,0.0,81,0.00,,SKC,0.00,VWS V14.01,2013-02-17 02:17:00,
2013-02-16 20:22:00,4.8,0.0,30.12,WNW,286,0.0,0.0,80,0.00,,SKC,0.00,VWS V14.01,2013-02-17 02:22:00,
2013-02-16 20:27:00,4.3,-0.8,30.12,WNW,286,0.0,0.0,79,0.00,,SKC,0.00,VWS V14.01,2013-02-17 02:27:00,
2013-02-16 20:30:00,3.8,-1.0,30.12,WNW,286,0.0,0.0,80,0.00,,SKC,0.00,VWS V14.01,2013-02-17 02:30:00,
2013-02-16 20:32:00,4.0,-0.8,30.12,WNW,286,0.0,0.0,80,0.00,,SKC,0.00,VWS V14.01,2013-02-17 02:32:00,
2013-02-16 20:37:00,3.7,-1.1,30.12,WNW,286,0.0,0.0,80,0.00,,SKC,0.00,VWS V14.01,2013-02-17 02:37:00,
2013-02-16 20:42:00,3.4,-1.4,30.12,WNW,286,0.0,1.0,80,0.00,,SKC,0.00,VWS V14.01,2013-02-17 02:42:00,
2013-02-16 20:47:00,3.1,-1.7,30.12,WNW,286,0.0,1.0,80,0.00,,SKC,0.00,VWS V14.01,2013-02-17 02:47:00,
2013-02-16 20:52:00,2.8,-2.0,30.12,WNW,286,0.0,1.0,80,0.00,,SKC,0.00,VWS V14.01,2013-02-17 02:52:00,
2013-02-16 20:57:00,2.6,-2.2,30.12,WNW,286,1.0,2.0,80,0.00,,SKC,0.00,VWS V14.01,2013-02-17 02:57:00,
2013-02-16 21:00:00,2.5,-1.7,30.12,WNW,286,0.0,3.0,82,0.00,,SKC,0.00,VWS V14.01,2013-02-17 03:00:00,
2013-02-16 21:02:00,2.6,-1.9,30.12,WNW,286,0.0,3.0,81,0.00,,SKC,0.00,VWS V14.01,2013-02-17 03:02:00,
2013-02-16 21:07:00,2.6,-1.6,30.11,WNW,286,0.0,1.0,82,0.00,,SKC,0.00,VWS V14.01,2013-02-17 03:07:00,
2013-02-16 21:12:00,2.6,-1.6,30.11,WNW,286,0.0,2.0,82,0.00,,SKC,0.00,VWS V14.01,2013-02-17 03:12:00,
2013-02-16 21:17:00,2.5,-1.7,30.12,WNW,286,0.0,2.0,82,0.00,,SKC,0.00,VWS V14.01,2013-02-17 03:17:00,
2013-02-16 21:22:00,2.3,-2.2,30.12,WNW,286,0.0,2.0,81,0.00,,SKC,0.00,VWS V14.01,2013-02-17 03:22:00,
2013-02-16 21:27:00,2.3,-1.9,30.12,WNW,286,0.0,2.0,82,0.00,,SKC,0.00,VWS V14.01,2013-02-17 03:27:00,
2013-02-16 21:30:00,2.2,-2.0,30.12,WNW,286,0.0,2.0,82,0.00,,SKC,0.00,VWS V14.01,2013-02-17 03:30:00,
2013-02-16 21:32:00,2.2,-2.0,30.12,WNW,286,0.0,2.0,82,0.00,,SKC,0.00,VWS V14.01,2013-02-17 03:32:00,
2013-02-16 21:37:00,2.1,-2.1,30.12,WNW,286,0.0,0.0,82,0.00,,SKC,0.00,VWS V14.01,2013-02-17 03:37:00,
2013-02-16 21:42:00,1.9,-2.3,30.11,WNW,286,0.0,0.0,82,0.00,,SKC,0.00,VWS V14.01,2013-02-17 03:42:00,
2013-02-16 21:47:00,1.8,-2.4,30.11,WNW,286,0.0,0.0,82,0.00,,SKC,0.00,VWS V14.01,2013-02-17 03:47:00,
2013-02-16 21:52:00,2.2,-1.8,30.11,WNW,286,0.0,0.0,83,0.00,,SKC,0.00,VWS V14.01,2013-02-17 03:52:00,
2013-02-16 21:57:00,2.3,-1.4,30.11,WNW,286,0.0,2.0,84,0.00,,SKC,0.00,VWS V14.01,2013-02-17 03:57:00,
2013-02-16 22:00:00,2.2,-1.5,30.11,WNW,286,0.0,2.0,84,0.00,,SKC,0.00,VWS V14.01,2013-02-17 04:00:00,
2013-02-16 22:03:00,2.3,-1.4,30.11,WNW,286,0.0,2.0,84,0.00,,SKC,0.00,VWS V14.01,2013-02-17 04:03:00,
2013-02-16 22:08:00,2.2,-1.5,30.10,WNW,286,0.0,0.0,84,0.00,,SKC,0.00,VWS V14.01,2013-02-17 04:08:00,
2013-02-16 22:13:00,2.1,-1.6,30.10,WNW,286,0.0,1.0,84,0.00,,SKC,0.00,VWS V14.01,2013-02-17 04:13:00,
2013-02-16 22:18:00,2.1,-1.4,30.09,WNW,286,0.0,1.0,85,0.00,,SKC,0.00,VWS V14.01,2013-02-17 04:18:00,
2013-02-16 22:23:00,2.2,-1.3,30.10,WNW,286,0.0,1.0,85,0.00,,SKC,0.00,VWS V14.01,2013-02-17 04:23:00,
2013-02-16 22:28:00,2.1,-1.4,30.10,WNW,286,0.0,1.0,85,0.00,,SKC,0.00,VWS V14.01,2013-02-17 04:28:00,
2013-02-16 22:30:00,2.0,-1.5,30.09,WNW,286,0.0,1.0,85,0.00,,SKC,0.00,VWS V14.01,2013-02-17 04:30:00,
2013-02-16 22:33:00,2.0,-1.5,30.09,WNW,286,0.0,1.0,85,0.00,,SKC,0.00,VWS V14.01,2013-02-17 04:33:00,
2013-02-16 22:38:00,2.0,-1.5,30.09,WNW,286,0.0,0.0,85,0.00,,SKC,0.00,VWS V14.01,2013-02-17 04:38:00,
2013-02-16 22:43:00,1.9,-1.6,30.09,WNW,286,0.0,1.0,85,0.00,,SKC,0.00,VWS V14.01,2013-02-17 04:43:00,
2013-02-16 22:48:00,2.0,-1.5,30.09,WNW,286,0.0,1.0,85,0.00,,SKC,0.00,VWS V14.01,2013-02-17 04:48:00,
2013-02-16 22:53:00,2.0,-1.5,30.09,WNW,286,0.0,1.0,85,0.00,,SKC,0.00,VWS V14.01,2013-02-17 04:53:00,
2013-02-16 22:58:00,1.8,-1.9,30.09,WNW,286,0.0,1.0,84,0.00,,SKC,0.00,VWS V14.01,2013-02-17 04:58:00,
2013-02-16 23:00:00,1.8,-1.9,30.09,WNW,286,0.0,1.0,84,0.00,,SKC,0.00,VWS V14.01,2013-02-17 05:00:00,
2013-02-16 23:01:00,1.8,-1.9,30.09,WNW,286,0.0,1.0,84,0.00,,SKC,0.00,VWS V14.01,2013-02-17 05:01:00,
2013-02-16 23:03:00,1.7,-2.0,30.09,WNW,286,0.0,1.0,84,0.00,,SKC,0.00,VWS V14.01,2013-02-17 05:03:00,
2013-02-16 23:04:00,1.7,-2.0,30.09,WNW,286,0.0,1.0,84,0.00,,SKC,0.00,VWS V14.01,2013-02-17 05:04:00,
2013-02-16 23:09:00,1.7,-2.0,30.08,WNW,286,0.0,0.0,84,0.00,,SKC,0.00,VWS V14.01,2013-02-17 05:09:00,
2013-02-16 23:14:00,1.6,-1.9,30.08,WNW,286,0.0,0.0,85,0.00,,SKC,0.00,VWS V14.01,2013-02-17 05:14:00,
2013-02-16 23:19:00,1.4,-2.3,30.08,WNW,286,0.0,0.0,84,0.00,,SKC,0.00,VWS V14.01,2013-02-17 05:19:00,
2013-02-16 23:24:00,0.9,-2.8,30.08,WNW,286,0.0,0.0,84,0.00,,SKC,0.00,VWS V14.01,2013-02-17 05:24:00,
2013-02-16 23:29:00,0.4,-3.5,30.08,WNW,286,0.0,0.0,83,0.00,,SKC,0.00,VWS V14.01,2013-02-17 05:29:00,
2013-02-16 23:30:00,0.7,-3.0,30.08,WNW,286,0.0,0.0,84,0.00,,SKC,0.00,VWS V14.01,2013-02-17 05:30:00,
2013-02-16 23:34:00,0.7,-3.0,30.08,WNW,286,0.0,0.0,84,0.00,,SKC,0.00,VWS V14.01,2013-02-17 05:34:00,
2013-02-16 23:39:00,0.8,-2.6,30.08,WNW,286,0.0,0.0,85,0.00,,SKC,0.00,VWS V14.01,2013-02-17 05:39:00,
2013-02-16 23:44:00,0.8,-2.6,30.08,WNW,286,0.0,1.0,85,0.00,,SKC,0.00,VWS V14.01,2013-02-17 05:44:00,
2013-02-16 23:49:00,0.9,-2.5,30.08,WNW,286,2.0,2.0,85,0.00,,SKC,0.00,VWS V14.01,2013-02-17 05:49:00,
2013-02-16 23:54:00,0.9,-2.5,30.08,WNW,286,0.0,2.0,85,0.00,,SKC,0.00,VWS V14.01,2013-02-17 05:54:00,
2013-02-16 23:59:00,1.3,-1.9,30.08,WNW,286,0.0,2.0,86,0.00,,SKC,0.00,VWS V14.01,2013-02-17 05:59:00,